Airfield :
LOGIN :

Register | Disclaimer

   EN    FR    IT 

 










Legend :    VFR   Marginal VFR   IFR   Intensive IFR   Very Intensive IFR
Visi :
Ceiling :
>= 8 km
>= 3000ft
5 to 8 km
1000 to 3000 ft
1500m to 5 km
500 to 1000 ft
800 to 1500m
200 to 500 ft
< 800m
< 200 ft
Symbols :   Thunderstorms  Fog  Heavy snow  Heavy precipitations  Wind > 20 kt
SIGMETs :     Misc.  Thunderstorms  Icing  Turbulence  Mountain Waves  Volcanic Ashes







- Airport Elevation : 3 ft
- IATA code : DHR


EHKD - Den Helder De Kooy

CURRENT METAR :
  • 152155Z AUTO 14018G30KT 110V170 9999 OVC100 00/M04 Q1011 BLU

EXPIRED METARs :
  • 152125Z AUTO 14019G33KT 110V170 9999 OVC120 00/M04 Q1011 BLU
  • 152055Z AUTO 13017KT 100V180 9999 OVC140 M00/M04 Q1012 BLU
  • 152025Z AUTO 14018KT 100V170 9999 OVC230 M00/M04 Q1013 BLU
  • 151955Z AUTO 14017KT 100V170 9999 OVC240 M00/M04 Q1014 BLU
  • 151925Z AUTO 14017KT 100V170 9999 OVC250 M00/M04 Q1014 BLU

TAF AMD TAF EHKD
Valid from the 15 at 18:00 until the 16 at 06:00 UTC


151742Z 1518/1606 14016KT 9999 OVC025
BECMG 1523/1601 4000 -SN BKN010
TEMPO 1600/1604 2000 SN BKN005
PROB30
TEMPO 1602/1606 -FZRA
BECMG 1603/1605 2000 BR BKN004
No reported NOTAMs for that airfield.
1 SIGMET reported for the Amsterdam FIR (EHAA) :
 
Severe icing with freezing rain
EHAA SIGMET 1 VALID 151920/152330 EHDB
EHAA AMSTERDAM FIR SEV ICE (FZRA) FCST S OF LINE N5157 E00214 - N5109 E00426 SFC/FL050 MOV NE 25KT NC=



MET'MAP, your aeronautical weather chart ! - Copyright ORBIFLY December 2007 - Disclaimer

ORBIFLY MET'MAP TEAM :

Programming & Development : Alexandra Zaïnal
Concept & Development : Baudouin d'Aumeries
Co-Development & Prog : Marc-Olivier Méhu
Technical & hardware support : Manuel Goepfert

Contact : metmap@orbifly.com




SOURCES & CREDITS :

   NOAA